Time;durP1;ratioP1;P1;durP2;ratioP2;P2;SDS_P1;SDS_P2;PMS_P1;PMS_P2;Temp;Humidity;BMP_temperature;BMP_pressure;BME280_temperature;BME280_humidity;BME280_pressure;Samples;Min_cycle;Max_cycle;Signal;HPM_P1;HPM_P2
2022/11/16 00:01:41;;;;;;;10.47;7.00;;;;;;;12.85;99.81;99245.19;5012933;28;20806;-63
2022/11/16 00:04:11;;;;;;;10.97;7.33;;;;;;;12.95;98.88;99243.03;5007537;28;20214;-63
2022/11/16 00:06:39;;;;;;;8.17;5.70;;;;;;;13.00;98.23;99240.63;5011265;28;20912;-63
2022/11/16 00:09:23;;;;;;;9.77;6.70;;;;;;;12.95;98.90;99235.03;5019007;28;20344;-64
2022/11/16 00:11:52;;;;;;;14.27;7.32;;;;;;;12.97;98.56;99240.19;4960970;28;1488784;-62
2022/11/16 00:14:20;;;;;;;11.47;7.17;;;;;;;12.87;100.00;99240.50;5009343;28;20209;-63
2022/11/16 00:16:49;;;;;;;12.77;7.43;;;;;;;12.91;100.00;99247.09;5012001;28;20216;-63
2022/11/16 00:19:17;;;;;;;12.67;7.67;;;;;;;12.88;100.00;99244.81;5015669;28;20205;-64
2022/11/16 00:21:45;;;;;;;15.57;7.63;;;;;;;12.85;100.00;99242.53;5011125;28;20331;-62
2022/11/16 00:24:19;;;;;;;13.73;7.43;;;;;;;12.78;100.00;99245.16;5013335;28;20228;-65
2022/11/16 00:26:48;;;;;;;12.77;7.93;;;;;;;12.78;100.00;99236.34;5012817;28;20579;-61
2022/11/16 00:29:19;;;;;;;13.33;8.17;;;;;;;12.85;100.00;99241.72;5019721;28;20572;-62
2022/11/16 00:31:47;;;;;;;15.90;8.60;;;;;;;12.84;100.00;99226.78;5015599;28;20205;-61
2022/11/16 00:34:16;;;;;;;13.90;8.77;;;;;;;12.86;100.00;99236.19;5026768;28;20228;-63
2022/11/16 00:36:44;;;;;;;13.80;7.87;;;;;;;12.91;100.00;99225.81;5022584;28;20223;-62
2022/11/16 00:39:12;;;;;;;11.97;7.90;;;;;;;12.91;100.00;99228.47;5018367;28;20209;-64
2022/11/16 00:41:42;;;;;;;13.57;7.70;;;;;;;12.82;100.00;99222.47;5029915;28;20228;-62
2022/11/16 00:44:12;;;;;;;12.80;8.07;;;;;;;12.76;100.00;99223.22;5018769;28;20328;-62
2022/11/16 00:46:40;;;;;;;13.20;7.87;;;;;;;12.72;100.00;99218.50;5018568;28;20212;-63
2022/11/16 00:49:08;;;;;;;11.67;7.30;;;;;;;12.73;100.00;99222.81;5018741;28;20644;-62
2022/11/16 00:51:37;;;;;;;11.77;6.93;;;;;;;12.79;100.00;99214.88;5014681;28;20201;-62
2022/11/16 00:54:06;;;;;;;14.17;8.13;;;;;;;12.79;100.00;99216.72;5020531;28;20582;-64
2022/11/16 00:56:34;;;;;;;12.67;7.30;;;;;;;12.75;100.00;99210.94;5018475;28;20222;-62
2022/11/16 00:59:03;;;;;;;11.43;7.63;;;;;;;12.78;100.00;99215.06;5020045;28;20646;-63
2022/11/16 01:01:31;;;;;;;11.30;7.17;;;;;;;12.78;100.00;99205.25;5018043;28;20228;-63
2022/11/16 01:03:59;;;;;;;13.57;8.40;;;;;;;12.79;100.00;99208.72;5018563;28;20210;-63
2022/11/16 01:06:26;;;;;;;13.83;8.13;;;;;;;12.76;100.00;99211.75;5020444;28;20201;-63
2022/11/16 01:08:54;;;;;;;13.97;8.20;;;;;;;12.71;100.00;99211.53;5017657;28;20612;-62
2022/11/16 01:14:09;;;;;;;14.63;8.77;;;;;;;12.72;100.00;99216.66;5019047;28;20241;-64
2022/11/16 01:16:37;;;;;;;13.30;8.57;;;;;;;12.70;100.00;99200.06;5021327;28;20755;-62
2022/11/16 01:19:05;;;;;;;16.90;8.37;;;;;;;12.70;100.00;99196.59;5013100;28;20663;-62
2022/11/16 01:21:34;;;;;;;13.60;9.27;;;;;;;12.74;100.00;99195.19;5016008;28;20242;-63
2022/11/16 01:24:02;;;;;;;15.10;8.53;;;;;;;12.72;100.00;99195.38;5014018;28;20209;-65
2022/11/16 01:26:29;;;;;;;13.33;8.73;;;;;;;12.79;100.00;99190.13;5019682;28;20209;-62
2022/11/16 01:28:58;;;;;;;15.27;8.83;;;;;;;12.77;100.00;99192.97;5016036;28;20209;-62
2022/11/16 01:31:27;;;;;;;13.67;8.30;;;;;;;12.70;100.00;99191.28;5010441;28;20370;-64
2022/11/16 01:33:55;;;;;;;16.40;8.50;;;;;;;12.68;100.00;99195.94;5017987;28;20222;-62
2022/11/16 01:36:23;;;;;;;11.93;7.87;;;;;;;12.67;100.00;99197.78;5015948;28;20264;-63
2022/11/16 01:38:50;;;;;;;13.47;7.53;;;;;;;12.75;100.00;99205.63;5017575;28;20712;-64
2022/11/16 01:41:20;;;;;;;14.20;7.27;;;;;;;12.76;100.00;99196.63;5018513;28;20228;-60
2022/11/16 01:43:58;;;;;;;9.90;6.80;;;;;;;12.79;100.00;99195.44;5013968;28;20210;-62
2022/11/16 01:46:30;;;;;;;11.83;7.47;;;;;;;12.77;100.00;99200.13;5012241;28;20201;-64
2022/11/16 01:49:03;;;;;;;11.23;7.53;;;;;;;12.78;100.00;99188.47;5015210;28;20220;-63
2022/11/16 01:51:31;;;;;;;16.40;8.30;;;;;;;12.77;100.00;99192.97;5020080;28;20200;-62
2022/11/16 01:54:02;;;;;;;13.30;7.43;;;;;;;12.80;100.00;99189.09;5018624;28;20263;-63
2022/11/16 01:56:31;;;;;;;14.17;8.17;;;;;;;12.80;100.00;99189.09;5016752;28;20557;-64
2022/11/16 01:58:59;;;;;;;12.67;7.90;;;;;;;12.77;100.00;99186.81;5015885;28;20271;-63
2022/11/16 02:01:28;;;;;;;11.70;7.93;;;;;;;12.74;100.00;99188.03;5024140;28;20225;-63
2022/11/16 02:03:56;;;;;;;10.77;7.53;;;;;;;12.73;100.00;99178.41;5014598;28;20225;-62
2022/11/16 02:06:32;;;;;;;12.53;8.20;;;;;;;12.72;100.00;99183.94;5014954;28;20336;-62
2022/11/16 02:12:12;;;;;;;15.50;8.17;;;;;;;12.67;100.00;99181.81;5020662;28;20313;-62
2022/11/16 02:14:55;;;;;;;13.00;8.30;;;;;;;12.68;100.00;99174.69;5022384;28;20570;-62
2022/11/16 02:17:32;;;;;;;12.17;7.30;;;;;;;12.68;100.00;99167.53;5016275;28;20223;-62
2022/11/16 02:20:33;;;;;;;11.40;7.77;;;;;;;12.67;100.00;99170.38;5021849;28;20205;-64
2022/11/16 02:23:21;;;;;;;12.13;8.10;;;;;;;12.65;100.00;99178.56;5006909;28;20232;-62
2022/11/16 02:25:59;;;;;;;12.33;8.10;;;;;;;12.66;100.00;99179.38;5012656;28;20266;-63
2022/11/16 02:28:40;;;;;;;13.27;8.27;;;;;;;12.66;100.00;99177.56;5009797;28;20232;-64
2022/11/16 02:31:15;;;;;;;15.80;9.13;;;;;;;12.71;100.00;99174.31;5018516;28;20205;-63
2022/11/16 02:33:48;;;;;;;15.43;8.50;;;;;;;12.71;100.00;99176.97;5015739;28;20212;-61
2022/11/16 02:36:22;;;;;;;14.07;9.30;;;;;;;12.69;100.00;99192.28;5016690;28;20236;-63
2022/11/16 02:38:54;;;;;;;14.07;9.00;;;;;;;12.78;100.00;99181.31;5010222;28;20616;-62
2022/11/16 02:41:25;;;;;;;12.23;8.40;;;;;;;12.84;100.00;99185.03;5015593;28;20756;-62
2022/11/16 02:43:59;;;;;;;15.37;8.77;;;;;;;12.78;100.00;99191.94;5016652;28;20270;-62
2022/11/16 02:46:36;;;;;;;11.87;7.67;;;;;;;12.72;100.00;99187.41;5020871;28;20255;-64
2022/11/16 02:49:09;;;;;;;11.67;8.33;;;;;;;12.70;100.00;99186.78;5017184;28;20302;-62
2022/11/16 02:51:38;;;;;;;14.70;8.57;;;;;;;12.67;100.00;99187.16;5019990;28;20894;-64
2022/11/16 02:54:11;;;;;;;14.90;8.93;;;;;;;12.72;100.00;99187.41;5016326;28;20573;-62
2022/11/16 02:56:46;;;;;;;13.60;7.27;;;;;;;12.68;100.00;99172.84;5015753;28;20208;-61
2022/11/16 02:59:14;;;;;;;14.30;7.67;;;;;;;12.66;100.00;99179.38;5012257;28;20215;-63
2022/11/16 03:01:51;;;;;;;13.90;8.43;;;;;;;12.71;100.00;99172.47;5012667;28;20224;-63
2022/11/16 03:04:25;;;;;;;16.60;8.60;;;;;;;12.62;100.00;99175.44;5022067;28;20258;-61
2022/11/16 03:06:56;;;;;;;14.67;8.73;;;;;;;12.64;100.00;99170.78;5016901;28;20201;-63
2022/11/16 03:09:28;;;;;;;14.57;8.63;;;;;;;12.64;100.00;99157.47;5019088;28;20265;-62
2022/11/16 03:11:58;;;;;;;14.40;9.00;;;;;;;12.59;100.00;99157.22;5020837;28;20233;-63
2022/11/16 03:14:33;;;;;;;16.13;9.47;;;;;;;12.63;100.00;99153.16;5013500;28;20214;-62
2022/11/16 03:17:04;;;;;;;15.20;8.60;;;;;;;12.62;100.00;99154.19;5025123;28;20638;-61
2022/11/16 03:19:36;;;;;;;13.60;9.03;;;;;;;12.68;100.00;99151.56;5015541;28;20216;-61
2022/11/16 03:22:10;;;;;;;14.67;9.07;;;;;;;12.65;100.00;99145.81;5025586;28;20226;-63
2022/11/16 03:24:38;;;;;;;13.70;8.33;;;;;;;12.61;100.00;99148.03;5018592;28;20215;-61
2022/11/16 03:27:13;;;;;;;18.07;9.80;;;;;;;12.59;100.00;99151.91;5015448;28;20205;-62
2022/11/16 03:29:46;;;;;;;15.57;9.77;;;;;;;12.62;100.00;99167.47;5014407;28;20232;-61
2022/11/16 03:32:20;;;;;;;16.53;9.97;;;;;;;12.61;100.00;99171.16;5014703;28;20231;-60
2022/11/16 03:34:56;;;;;;;14.77;9.87;;;;;;;12.61;100.00;99176.47;5013660;28;20213;-64
2022/11/16 03:37:25;;;;;;;15.20;9.80;;;;;;;12.59;100.00;99178.47;5015665;28;20213;-61
2022/11/16 03:39:54;;;;;;;14.70;9.70;;;;;;;12.61;100.00;99182.59;5008069;28;20648;-63
2022/11/16 03:42:23;;;;;;;15.67;10.47;;;;;;;12.56;100.00;99192.19;5009641;28;20951;-63
2022/11/16 03:44:52;;;;;;;16.33;10.73;;;;;;;12.56;100.00;99189.53;5011536;28;20208;-65
2022/11/16 03:47:21;;;;;;;16.70;10.53;;;;;;;12.57;100.00;99176.03;5014688;28;21190;-63
2022/11/16 03:49:49;;;;;;;20.70;11.20;;;;;;;12.61;100.00;99179.94;5009922;28;20678;-63
2022/11/16 03:52:17;;;;;;;17.10;11.80;;;;;;;12.59;100.00;99199.75;5008577;28;20205;-64
2022/11/16 03:54:45;;;;;;;17.77;11.27;;;;;;;12.62;100.00;99196.72;5008991;28;20204;-63
2022/11/16 03:57:16;;;;;;;18.13;10.80;;;;;;;12.61;100.00;99192.41;5013772;28;20721;-61
2022/11/16 03:59:45;;;;;;;21.17;12.00;;;;;;;12.59;100.00;99183.81;5011167;28;22219;-64
2022/11/16 04:02:13;;;;;;;16.07;10.93;;;;;;;12.54;100.00;99202.19;5015306;28;20280;-62
2022/11/16 04:24:12;;;;;;;14.67;10.40;;;;;;;12.56;100.00;99205.47;5011884;28;20706;-64
2022/11/16 04:29:28;;;;;;;17.13;11.57;;;;;;;12.56;100.00;99197.50;5011410;28;20213;-63
2022/11/16 04:40:15;;;;;;;17.47;10.47;;;;;;;12.54;100.00;99212.81;5017284;28;20219;-65
2022/11/16 04:42:43;;;;;;;15.83;11.30;;;;;;;12.52;100.00;99220.16;5012038;28;20229;-63
2022/11/16 04:47:56;;;;;;;16.53;10.80;;;;;;;12.53;100.00;99221.81;5011538;28;20213;-66
2022/11/16 04:50:23;;;;;;;16.43;10.27;;;;;;;12.49;100.00;99225.88;5010451;28;20248;-65
2022/11/16 04:52:52;;;;;;;14.97;10.43;;;;;;;12.46;100.00;99223.59;5011499;28;20209;-65
2022/11/16 04:55:20;;;;;;;15.30;9.73;;;;;;;12.47;100.00;99227.91;5016103;28;20213;-63
2022/11/16 04:57:48;;;;;;;15.57;10.10;;;;;;;12.51;100.00;99219.34;5008875;28;20213;-64
2022/11/16 05:00:16;;;;;;;15.37;10.77;;;;;;;12.49;100.00;99218.69;5006603;28;20251;-64
2022/11/16 05:02:45;;;;;;;14.93;10.57;;;;;;;12.47;100.00;99217.25;5010324;28;20229;-63
2022/11/16 05:05:13;;;;;;;15.43;9.07;;;;;;;12.52;100.00;99218.31;5013532;28;20205;-62
2022/11/16 05:07:41;;;;;;;15.10;9.97;;;;;;;12.54;100.00;99215.47;5015087;28;20205;-64
2022/11/16 05:10:11;;;;;;;18.83;10.00;;;;;;;12.48;100.00;99206.44;5015804;28;20267;-63
2022/11/16 05:12:39;;;;;;;14.87;10.10;;;;;;;12.40;100.00;99212.69;5017493;28;20213;-62
2022/11/16 05:15:07;;;;;;;17.10;10.57;;;;;;;12.43;100.00;99211.50;5015876;28;20210;-63
2022/11/16 05:17:35;;;;;;;17.03;10.40;;;;;;;12.38;100.00;99217.38;5014912;28;20206;-62
2022/11/16 05:22:53;;;;;;;17.40;10.03;;;;;;;12.34;100.00;99213.44;5022927;28;20229;-62
2022/11/16 05:25:22;;;;;;;18.03;10.63;;;;;;;12.34;100.00;99209.97;5016742;28;20212;-65
2022/11/16 05:27:50;;;;;;;17.00;11.33;;;;;;;12.43;100.00;99216.81;5012598;28;20222;-62
2022/11/16 05:30:18;;;;;;;17.77;10.10;;;;;;;12.39;100.00;99216.38;5012827;28;20209;-61
2022/11/16 05:32:46;;;;;;;14.53;10.97;;;;;;;12.38;100.00;99214.72;5017580;28;20626;-62
2022/11/16 05:35:14;;;;;;;18.07;11.43;;;;;;;12.39;100.00;99220.88;5019301;28;20943;-63
2022/11/16 05:37:41;;;;;;;16.27;11.33;;;;;;;12.38;100.00;99225.38;5012554;28;20564;-64
2022/11/16 05:40:10;;;;;;;15.40;10.67;;;;;;;12.41;100.00;99227.63;5015314;28;20626;-65
2022/11/16 05:42:39;;;;;;;17.90;10.73;;;;;;;12.38;100.00;99236.00;5012207;28;20220;-63
2022/11/16 05:45:07;;;;;;;16.57;10.83;;;;;;;12.37;100.00;99234.34;5014480;28;20262;-65
2022/11/16 05:47:35;;;;;;;16.20;10.60;;;;;;;12.39;100.00;99236.81;5012275;28;20217;-64
2022/11/16 05:50:03;;;;;;;16.50;10.60;;;;;;;12.42;100.00;99229.28;5014145;28;20254;-64
2022/11/16 05:52:31;;;;;;;17.30;10.83;;;;;;;12.39;100.00;99237.66;5012186;28;20201;-66
2022/11/16 05:54:58;;;;;;;15.03;10.77;;;;;;;12.41;100.00;99235.59;5012863;28;20212;-64
2022/11/16 05:57:26;;;;;;;19.73;11.00;;;;;;;12.42;100.00;99247.88;5012476;28;20265;-62
2022/11/16 05:59:55;;;;;;;16.83;10.73;;;;;;;12.43;100.00;99244.22;5011574;28;20209;-62
2022/11/16 06:02:23;;;;;;;17.97;12.40;;;;;;;12.41;100.00;99248.88;5016129;28;20724;-65
2022/11/16 06:04:50;;;;;;;16.33;10.87;;;;;;;12.38;100.00;99254.59;5019501;28;20295;-64
2022/11/16 06:07:18;;;;;;;15.10;10.07;;;;;;;12.37;100.00;99247.63;5014692;28;20201;-63
2022/11/16 06:09:46;;;;;;;17.30;11.57;;;;;;;12.40;100.00;99241.94;5014763;28;20236;-63
2022/11/16 06:12:13;;;;;;;17.57;11.63;;;;;;;12.40;100.00;99233.16;5019197;28;20204;-65
2022/11/16 06:14:41;;;;;;;18.03;11.63;;;;;;;12.34;100.00;99240.03;5022535;28;20197;-63
2022/11/16 06:17:13;;;;;;;16.20;11.27;;;;;;;12.36;100.00;99238.00;5013662;28;20642;-64
2022/11/16 06:19:41;;;;;;;17.77;10.67;;;;;;;12.33;100.00;99241.03;5020002;28;20658;-63
2022/11/16 06:22:08;;;;;;;15.83;10.27;;;;;;;12.34;100.00;99248.00;5021884;28;20209;-65
2022/11/16 06:24:36;;;;;;;18.60;11.50;;;;;;;12.35;100.00;99249.66;5022621;28;20227;-63
2022/11/16 06:27:04;;;;;;;15.63;11.00;;;;;;;12.34;100.00;99247.19;5023174;28;20248;-63
2022/11/16 06:29:32;;;;;;;18.83;10.50;;;;;;;12.36;100.00;99243.34;5011100;28;20205;-63
2022/11/16 06:31:59;;;;;;;13.83;10.07;;;;;;;12.37;100.00;99252.94;5017756;28;20232;-63
2022/11/16 06:34:28;;;;;;;17.53;10.37;;;;;;;12.34;100.00;99258.63;5015740;28;20205;-63
2022/11/16 06:36:56;;;;;;;14.73;9.67;;;;;;;12.38;100.00;99259.91;5028119;28;20210;-63
2022/11/16 06:39:24;;;;;;;16.00;9.80;;;;;;;12.37;100.00;99262.75;5025782;28;20267;-63
2022/11/16 06:41:52;;;;;;;15.53;10.97;;;;;;;12.43;100.00;99270.78;5014531;28;20221;-63
2022/11/16 06:44:19;;;;;;;16.40;10.80;;;;;;;12.39;100.00;99269.53;5011674;28;20283;-64
2022/11/16 06:46:47;;;;;;;14.00;9.47;;;;;;;12.33;100.00;99272.94;5018776;28;20213;-63
2022/11/16 06:49:15;;;;;;;15.17;9.37;;;;;;;12.37;100.00;99271.56;5017928;28;20221;-65
2022/11/16 06:51:44;;;;;;;15.37;9.90;;;;;;;12.37;100.00;99274.22;5012175;28;20216;-63
2022/11/16 06:54:11;;;;;;;16.27;10.30;;;;;;;12.39;100.00;99276.69;5017326;28;20213;-65
2022/11/16 06:56:39;;;;;;;18.20;9.93;;;;;;;12.40;100.00;99286.31;5018065;28;20265;-65
2022/11/16 06:59:07;;;;;;;15.10;10.27;;;;;;;12.37;100.00;99281.38;5018246;28;20201;-63
2022/11/16 07:01:34;;;;;;;14.17;9.27;;;;;;;12.37;100.00;99299.97;5013154;28;20287;-66
2022/11/16 07:04:02;;;;;;;14.67;9.37;;;;;;;12.38;100.00;99298.97;5020826;28;20226;-64
2022/11/16 07:06:30;;;;;;;16.47;9.67;;;;;;;12.42;100.00;99302.88;5022795;28;20258;-65
2022/11/16 07:08:59;;;;;;;13.33;8.83;;;;;;;12.43;100.00;99300.03;5013511;28;20291;-63
2022/11/16 07:11:27;;;;;;;12.40;8.57;;;;;;;12.41;100.00;99307.38;5013291;28;20785;-65
2022/11/16 07:13:54;;;;;;;14.83;9.10;;;;;;;12.44;100.00;99306.19;5015036;28;20243;-64
2022/11/16 07:16:22;;;;;;;15.20;9.13;;;;;;;12.53;100.00;99306.88;5016311;28;20650;-65
2022/11/16 07:18:49;;;;;;;19.30;11.17;;;;;;;12.57;100.00;99298.38;5018049;28;20225;-64
2022/11/16 07:21:17;;;;;;;39.47;18.70;;;;;;;12.59;100.00;99295.50;5011854;28;20327;-62
2022/11/16 07:23:45;;;;;;;32.00;16.27;;;;;;;12.56;100.00;99294.06;5012121;28;20658;-62
2022/11/16 07:26:14;;;;;;;14.53;9.63;;;;;;;12.69;100.00;99304.81;5012677;28;20219;-64
2022/11/16 07:28:42;;;;;;;16.73;8.90;;;;;;;12.82;100.00;99310.25;5010647;28;20210;-64
2022/11/16 07:31:15;;;;;;;13.77;9.20;;;;;;;12.97;100.00;99302.19;5012549;28;20203;-64
2022/11/16 07:33:43;;;;;;;15.70;8.50;;;;;;;13.11;99.28;99306.59;5012414;28;20683;-63
2022/11/16 07:36:12;;;;;;;13.57;8.93;;;;;;;13.18;98.08;99315.53;5010401;28;20271;-64
2022/11/16 07:38:40;;;;;;;14.93;9.03;;;;;;;13.13;98.07;99312.59;5015250;28;20209;-64
2022/11/16 07:41:10;;;;;;;15.20;9.00;;;;;;;13.13;98.05;99306.44;5011029;28;20217;-63
2022/11/16 07:43:39;;;;;;;11.40;8.10;;;;;;;13.05;98.84;99322.53;5015190;28;20292;-64
2022/11/16 07:46:10;;;;;;;13.13;8.53;;;;;;;12.95;99.59;99322.84;5012765;28;20258;-61
2022/11/16 07:48:58;;;;;;;17.63;8.43;;;;;;;12.92;100.00;99327.75;5014497;28;20205;-62
2022/11/16 07:51:25;;;;;;;13.70;8.07;;;;;;;12.87;100.00;99328.31;5017041;28;20232;-64
2022/11/16 07:53:55;;;;;;;12.63;7.90;;;;;;;12.87;100.00;99330.13;5012521;28;20206;-64
2022/11/16 07:56:23;;;;;;;19.50;10.93;;;;;;;12.84;100.00;99341.97;5016729;28;20260;-64
2022/11/16 07:58:51;;;;;;;15.23;9.73;;;;;;;12.84;100.00;99341.97;5013539;28;20210;-62
2022/11/16 08:01:19;;;;;;;14.67;8.43;;;;;;;12.94;100.00;99345.16;5008887;28;20762;-62
2022/11/16 08:03:47;;;;;;;15.17;8.57;;;;;;;13.00;100.00;99357.72;5009771;28;20204;-62
2022/11/16 08:06:19;;;;;;;13.10;8.83;;;;;;;13.07;100.00;99357.75;5007104;28;20667;-64
2022/11/16 08:08:46;;;;;;;16.70;8.90;;;;;;;13.08;100.00;99354.91;5009210;28;20671;-63
2022/11/16 08:11:14;;;;;;;15.03;8.67;;;;;;;13.08;100.00;99349.59;5017010;28;20310;-63
2022/11/16 08:13:42;;;;;;;13.23;8.03;;;;;;;13.10;99.62;99352.91;5009935;28;20747;-63
2022/11/16 08:16:13;;;;;;;12.77;6.97;;;;;;;13.06;98.53;99356.94;5018258;28;20264;-63
2022/11/16 08:18:41;;;;;;;7.93;5.33;;;;;;;13.00;98.21;99348.91;5000464;28;20351;-63
2022/11/16 08:21:12;;;;;;;8.53;4.57;;;;;;;12.95;97.89;99352.13;5010637;28;20243;-63
2022/11/16 08:23:40;;;;;;;7.70;4.30;;;;;;;12.99;97.88;99355.22;5016797;28;20682;-63
2022/11/16 08:26:13;;;;;;;5.97;3.20;;;;;;;13.07;96.00;99355.09;5013983;28;20252;-63
2022/11/16 08:28:41;;;;;;;8.37;2.80;;;;;;;13.11;93.17;99362.50;5009204;28;20217;-62
2022/11/16 08:31:12;;;;;;;5.87;2.77;;;;;;;13.15;93.39;99371.78;5016302;28;20218;-62
2022/11/16 08:33:40;;;;;;;6.23;2.73;;;;;;;13.23;92.95;99375.34;5012840;28;20683;-62
2022/11/16 08:36:11;;;;;;;12.30;3.00;;;;;;;13.33;92.45;99378.50;5020312;28;20201;-62
2022/11/16 08:38:41;;;;;;;8.47;2.70;;;;;;;13.51;90.82;99373.53;5016122;28;20211;-63
2022/11/16 08:41:08;;;;;;;9.17;3.27;;;;;;;13.73;90.00;99377.78;5016960;28;20222;-62
2022/11/16 08:43:38;;;;;;;7.17;2.70;;;;;;;13.94;88.23;99371.56;5020235;28;20208;-62
2022/11/16 08:46:06;;;;;;;6.73;2.40;;;;;;;14.02;86.25;99370.56;5017275;28;20232;-62
2022/11/16 08:48:36;;;;;;;7.87;1.80;;;;;;;14.04;85.56;99365.88;5015161;28;20270;-62
2022/11/16 08:51:05;;;;;;;5.33;2.13;;;;;;;14.17;84.36;99371.25;5019910;28;20961;-62
2022/11/16 08:53:48;;;;;;;11.80;2.13;;;;;;;14.25;82.76;99371.91;5020406;28;20235;-62
2022/11/16 08:56:17;;;;;;;11.87;2.60;;;;;;;14.28;81.73;99384.84;5023857;28;20709;-63
2022/11/16 08:58:45;;;;;;;13.17;2.47;;;;;;;14.41;80.62;99381.47;5010022;28;20212;-63
2022/11/16 09:01:15;;;;;;;9.53;2.30;;;;;;;14.54;79.91;99378.00;5012351;28;20206;-62
2022/11/16 09:03:46;;;;;;;11.67;2.20;;;;;;;15.45;76.39;99381.88;5015352;28;20359;-63
2022/11/16 09:06:13;;;;;;;10.07;1.47;;;;;;;16.12;71.54;99381.59;5020849;28;20312;-63
2022/11/16 09:08:43;;;;;;;10.97;2.33;;;;;;;16.69;68.66;99377.31;5016771;28;20799;-62
2022/11/16 09:11:14;;;;;;;8.03;1.73;;;;;;;16.97;67.12;99376.94;5016454;28;20233;-62
2022/11/16 09:13:42;;;;;;;15.63;2.40;;;;;;;17.03;66.08;99376.06;5014877;28;20665;-62
2022/11/16 09:16:10;;;;;;;5.27;1.60;;;;;;;16.91;65.80;99373.25;5019348;28;20666;-62
2022/11/16 09:18:38;;;;;;;7.80;1.57;;;;;;;16.55;67.17;99373.81;5012243;28;20255;-63
2022/11/16 09:21:07;;;;;;;6.20;1.67;;;;;;;16.50;66.42;99373.66;5018416;28;20744;-63
2022/11/16 09:23:34;;;;;;;8.70;1.70;;;;;;;16.23;66.53;99369.44;5014356;28;20216;-63
2022/11/16 09:26:03;;;;;;;12.00;2.07;;;;;;;16.08;66.47;99376.91;5018730;28;20236;-63
2022/11/16 09:28:31;;;;;;;8.70;2.00;;;;;;;15.81;66.44;99373.47;5016183;28;20213;-64
2022/11/16 09:31:01;;;;;;;8.90;1.93;;;;;;;15.59;67.95;99374.69;5023582;28;20968;-63
2022/11/16 09:33:30;;;;;;;8.00;1.67;;;;;;;15.53;67.78;99378.19;5017709;28;20211;-63
2022/11/16 09:36:01;;;;;;;6.90;2.00;;;;;;;15.55;68.42;99394.88;5023601;28;20233;-64
2022/11/16 09:38:31;;;;;;;6.57;1.73;;;;;;;15.79;67.99;99395.03;5020829;28;20570;-63
2022/11/16 09:41:42;;;;;;;8.60;1.60;;;;;;;15.60;67.83;99403.06;5025499;28;20312;-62
2022/11/16 09:44:24;;;;;;;10.40;1.50;;;;;;;15.32;69.16;99392.53;5019786;28;20213;-64
2022/11/16 09:46:56;;;;;;;13.30;1.80;;;;;;;15.01;69.72;99395.81;5024367;28;20248;-63
2022/11/16 09:49:27;;;;;;;10.17;1.77;;;;;;;14.87;71.58;99399.44;5021734;28;20207;-63
2022/11/16 09:51:59;;;;;;;10.33;1.57;;;;;;;14.89;72.91;99397.41;5027658;28;20674;-63
2022/11/16 09:54:36;;;;;;;8.10;1.77;;;;;;;14.94;73.70;99403.81;5022618;28;20603;-63
2022/11/16 09:57:10;;;;;;;8.47;1.50;;;;;;;14.91;72.69;99396.19;5018587;28;20201;-65
2022/11/16 09:59:44;;;;;;;9.87;1.90;;;;;;;14.84;72.04;99389.19;5027965;28;20201;-64
2022/11/16 10:02:22;;;;;;;10.93;2.37;;;;;;;14.72;73.62;99391.63;5022261;28;20206;-64
2022/11/16 10:05:02;;;;;;;14.90;2.33;;;;;;;14.60;74.06;99386.03;5019086;28;20205;-64
2022/11/16 10:07:40;;;;;;;12.50;1.80;;;;;;;14.45;75.02;99395.22;5026090;28;20220;-63
2022/11/16 10:10:12;;;;;;;7.57;1.83;;;;;;;14.33;75.11;99402.94;5022684;28;20248;-63
2022/11/16 10:12:45;;;;;;;6.97;1.50;;;;;;;14.25;75.95;99400.41;5014250;28;20215;-64
2022/11/16 10:15:29;;;;;;;9.20;2.07;;;;;;;14.16;76.52;99396.28;5017684;28;20226;-66
2022/11/16 10:18:10;;;;;;;8.23;1.90;;;;;;;14.19;76.02;99386.03;5021698;28;20212;-66
2022/11/16 10:20:53;;;;;;;6.27;1.60;;;;;;;14.25;76.18;99392.41;5014985;28;20220;-65
2022/11/16 10:23:30;;;;;;;13.03;2.00;;;;;;;14.38;75.99;99383.66;5015733;28;20231;-64
2022/11/16 10:26:11;;;;;;;5.60;1.27;;;;;;;14.44;76.23;99378.38;5017589;28;20680;-64
2022/11/16 10:29:01;;;;;;;8.17;1.60;;;;;;;14.56;75.51;99371.47;5021834;28;20208;-64
2022/11/16 10:31:43;;;;;;;8.90;2.10;;;;;;;14.65;75.22;99370.25;5020374;28;20275;-65
2022/11/16 10:34:19;;;;;;;12.43;2.40;;;;;;;14.71;75.02;99370.47;5020890;28;20212;-67
2022/11/16 10:36:47;;;;;;;5.87;1.87;;;;;;;14.77;73.95;99367.84;5016808;28;20699;-65
2022/11/16 10:39:17;;;;;;;10.73;2.13;;;;;;;15.09;73.48;99371.59;5016658;28;20215;-71
2022/11/16 10:41:49;;;;;;;10.97;1.80;;;;;;;16.35;70.04;99353.56;5015935;28;20202;-65
2022/11/16 10:44:21;;;;;;;8.27;1.50;;;;;;;17.42;63.82;99355.34;5019293;28;20212;-65
2022/11/16 10:47:00;;;;;;;6.53;1.43;;;;;;;17.72;61.66;99352.88;5012663;28;20240;-64
2022/11/16 10:49:35;;;;;;;8.07;1.97;;;;;;;17.58;61.16;99347.59;5014083;28;20217;-63
2022/11/16 10:52:03;;;;;;;5.47;1.57;;;;;;;17.39;61.24;99337.88;5014455;28;20205;-65
2022/11/16 10:54:31;;;;;;;5.33;1.53;;;;;;;17.49;61.17;99338.22;5012401;28;20205;-67
2022/11/16 10:57:04;;;;;;;9.40;2.17;;;;;;;17.43;61.46;99340.94;5012722;28;20220;-66
2022/11/16 10:59:41;;;;;;;6.03;1.60;;;;;;;17.27;60.63;99334.25;5012528;28;20610;-66
2022/11/16 11:02:33;;;;;;;6.53;1.67;;;;;;;16.87;62.08;99334.56;5012239;28;20263;-66
2022/11/16 11:05:04;;;;;;;11.40;2.30;;;;;;;16.51;62.05;99334.34;5011193;28;20209;-66
2022/11/16 11:07:34;;;;;;;7.47;1.30;;;;;;;16.16;64.20;99333.88;5014056;28;20237;-65
2022/11/16 11:10:02;;;;;;;5.40;1.57;;;;;;;15.99;65.06;99341.53;5011829;28;20233;-63
2022/11/16 11:12:40;;;;;;;6.53;1.43;;;;;;;16.83;61.29;99328.00;5018547;28;20205;-68
2022/11/16 11:15:21;;;;;;;9.73;1.47;;;;;;;16.69;61.39;99330.97;5011680;28;20228;-67
2022/11/16 11:18:12;;;;;;;6.57;1.67;;;;;;;16.33;61.78;99321.66;5015661;28;20265;-67
2022/11/16 11:20:41;;;;;;;10.47;2.40;;;;;;;15.97;64.15;99327.56;5016318;28;20214;-66
2022/11/16 11:23:15;;;;;;;8.13;1.37;;;;;;;15.82;63.47;99324.31;5018574;28;20566;-66
2022/11/16 11:25:51;;;;;;;13.67;2.50;;;;;;;15.60;64.97;99333.59;5011177;28;20216;-66
2022/11/16 11:28:23;;;;;;;9.40;2.00;;;;;;;15.39;65.91;99335.44;5011851;28;20352;-65
2022/11/16 11:30:58;;;;;;;11.03;1.70;;;;;;;15.15;66.61;99330.72;5013423;28;20498;-64
2022/11/16 11:33:30;;;;;;;11.97;2.20;;;;;;;15.02;66.68;99330.72;5012330;28;20224;-65
2022/11/16 11:36:02;;;;;;;14.70;4.37;;;;;;;14.87;68.01;99327.41;5009284;28;20641;-64
2022/11/16 11:38:31;;;;;;;11.07;3.57;;;;;;;14.75;69.01;99324.53;5008655;28;20708;-66
2022/11/16 11:41:00;;;;;;;8.97;2.07;;;;;;;14.75;69.58;99315.69;5007339;28;20278;-66
2022/11/16 11:43:29;;;;;;;8.10;2.13;;;;;;;14.76;69.64;99323.50;5009448;28;20710;-65
2022/11/16 11:46:05;;;;;;;10.10;2.80;;;;;;;14.88;69.38;99323.72;5010827;28;20215;-63
2022/11/16 11:48:41;;;;;;;11.73;2.40;;;;;;;15.05;68.87;99327.63;5012305;28;20216;-63
2022/11/16 11:51:17;;;;;;;8.77;2.23;;;;;;;15.18;67.62;99316.97;5016728;28;20254;-64
2022/11/16 11:53:53;;;;;;;9.30;1.73;;;;;;;15.31;67.95;99316.94;5014536;28;20212;-64
2022/11/16 11:56:21;;;;;;;7.27;1.43;;;;;;;15.43;66.88;99320.66;5008050;28;20201;-63
2022/11/16 11:58:50;;;;;;;7.77;1.53;;;;;;;15.52;66.79;99313.22;5006449;28;21061;-63
2022/11/16 12:01:47;;;;;;;8.17;2.10;;;;;;;15.77;66.50;99305.41;5016735;28;20209;-62
2022/11/16 12:04:41;;;;;;;7.27;1.77;;;;;;;15.82;65.49;99302.13;5009279;28;20627;-64
2022/11/16 12:07:20;;;;;;;5.60;1.43;;;;;;;15.76;66.23;99304.56;5006439;28;20956;-62
2022/11/16 12:09:57;;;;;;;7.90;1.83;;;;;;;15.67;66.58;99297.00;5008235;28;20225;-62
2022/11/16 12:12:35;;;;;;;8.17;2.13;;;;;;;15.55;67.57;99286.16;5011399;28;20209;-62
2022/11/16 12:15:25;;;;;;;6.43;1.93;;;;;;;15.45;69.40;99291.06;5010170;28;20693;-61
2022/11/16 12:18:04;;;;;;;10.97;2.57;;;;;;;15.47;68.85;99278.31;5010985;28;20209;-61
2022/11/16 12:20:42;;;;;;;5.57;1.50;;;;;;;15.42;68.20;99286.94;5011843;28;20209;-62